Aviation Digital Data Service (ADDS)

Output produced by METARs form (1812 UTC 19 August 2019)
found at http://www.aviationweather.gov/metar/data/
 
METAR text: LTFJ 191750Z 04011KT CAVOK 22/17 Q1018 NOSIG RMK RWY24 03006KT
Conditions at: LTFJ (SABIHA GOKCEN , TR) observed 1750 UTC 19 August 2019
Temperature: 22.0°C (72°F)
Dewpoint: 17.0°C (63°F) [RH = 73%]
Pressure (altimeter): 30.06 inches Hg (1018.0 mb)
Winds: from the NE (40 degrees) at 13 MPH (11 knots; 5.7 m/s)
Visibility: 6 or more miles (10+ km)
Ceiling: ceiling and visibility are OK
Clouds: unknown
Weather: no significant weather observed at this time

METAR text: LTFJ 191720Z 04011KT 9999 FEW035 22/17 Q1017 NOSIG RMK RWY24 03007KT
Conditions at: LTFJ (SABIHA GOKCEN , TR) observed 1720 UTC 19 August 2019
Temperature: 22.0°C (72°F)
Dewpoint: 17.0°C (63°F) [RH = 73%]
Pressure (altimeter): 30.03 inches Hg (1017.0 mb)
Winds: from the NE (40 degrees) at 13 MPH (11 knots; 5.7 m/s)
Visibility: 6 or more miles (10+ km)
Ceiling: at least 12,000 feet AGL
Clouds: few clouds at 3500 feet AGL
Weather: no significant weather observed at this time

METAR text: LTFJ 191650Z 04012KT 9999 SCT035 23/17 Q1017 NOSIG RMK RWY24 03010KT
Conditions at: LTFJ (SABIHA GOKCEN , TR) observed 1650 UTC 19 August 2019
Temperature: 23.0°C (73°F)
Dewpoint: 17.0°C (63°F) [RH = 69%]
Pressure (altimeter): 30.03 inches Hg (1017.0 mb)
Winds: from the NE (40 degrees) at 14 MPH (12 knots; 6.2 m/s)
Visibility: 6 or more miles (10+ km)
Ceiling: at least 12,000 feet AGL
Clouds: scattered clouds at 3500 feet AGL
Weather: no significant weather observed at this time

METAR text: LTFJ 191620Z 04014KT 9999 SCT035 24/16 Q1017 NOSIG RMK RWY24 03010KT
Conditions at: LTFJ (SABIHA GOKCEN , TR) observed 1620 UTC 19 August 2019
Temperature: 24.0°C (75°F)
Dewpoint: 16.0°C (61°F) [RH = 61%]
Pressure (altimeter): 30.03 inches Hg (1017.0 mb)
Winds: from the NE (40 degrees) at 16 MPH (14 knots; 7.2 m/s)
Visibility: 6 or more miles (10+ km)
Ceiling: at least 12,000 feet AGL
Clouds: scattered clouds at 3500 feet AGL
Weather: no significant weather observed at this time

METAR text: LTFJ 191550Z 03013KT 9999 SCT035 24/16 Q1017 NOSIG RMK RWY24 03014KT
Conditions at: LTFJ (SABIHA GOKCEN , TR) observed 1550 UTC 19 August 2019
Temperature: 24.0°C (75°F)
Dewpoint: 16.0°C (61°F) [RH = 61%]
Pressure (altimeter): 30.03 inches Hg (1017.0 mb)
Winds: from the NNE (30 degrees) at 15 MPH (13 knots; 6.7 m/s)
Visibility: 6 or more miles (10+ km)
Ceiling: at least 12,000 feet AGL
Clouds: scattered clouds at 3500 feet AGL
Weather: no significant weather observed at this time

METAR text: LTFJ 191520Z 04016KT 010V070 9999 SCT035 25/15 Q1017 NOSIG RMK RWY24 02014KT
Conditions at: LTFJ (SABIHA GOKCEN , TR) observed 1520 UTC 19 August 2019
Temperature: 25.0°C (77°F)
Dewpoint: 15.0°C (59°F) [RH = 54%]
Pressure (altimeter): 30.03 inches Hg (1017.0 mb)
Winds: from the NE (40 degrees) at 18 MPH (16 knots; 8.2 m/s)
Visibility: 6 or more miles (10+ km)
Ceiling: at least 12,000 feet AGL
Clouds: scattered clouds at 3500 feet AGL
Weather: no significant weather observed at this time

METAR text: LTFJ 191450Z 02016KT 9999 SCT035 25/16 Q1017 NOSIG RMK RWY24 03013KT
Conditions at: LTFJ (SABIHA GOKCEN , TR) observed 1450 UTC 19 August 2019
Temperature: 25.0°C (77°F)
Dewpoint: 16.0°C (61°F) [RH = 57%]
Pressure (altimeter): 30.03 inches Hg (1017.0 mb)
Winds: from the NNE (20 degrees) at 18 MPH (16 knots; 8.2 m/s)
Visibility: 6 or more miles (10+ km)
Ceiling: at least 12,000 feet AGL
Clouds: scattered clouds at 3500 feet AGL
Weather: no significant weather observed at this time

METAR text: LTFJ 191420Z 03016KT 360V060 9999 SCT035 26/15 Q1017 NOSIG RMK RWY24 04013KT
Conditions at: LTFJ (SABIHA GOKCEN , TR) observed 1420 UTC 19 August 2019
Temperature: 26.0°C (79°F)
Dewpoint: 15.0°C (59°F) [RH = 51%]
Pressure (altimeter): 30.03 inches Hg (1017.0 mb)
Winds: from the NNE (30 degrees) at 18 MPH (16 knots; 8.2 m/s)
Visibility: 6 or more miles (10+ km)
Ceiling: at least 12,000 feet AGL
Clouds: scattered clouds at 3500 feet AGL
Weather: no significant weather observed at this time

METAR text: LTFJ 191350Z 02016KT 350V060 9999 SCT035 26/15 Q1017 NOSIG RMK RWY24 04013KT
Conditions at: LTFJ (SABIHA GOKCEN , TR) observed 1350 UTC 19 August 2019
Temperature: 26.0°C (79°F)
Dewpoint: 15.0°C (59°F) [RH = 51%]
Pressure (altimeter): 30.03 inches Hg (1017.0 mb)
Winds: from the NNE (20 degrees) at 18 MPH (16 knots; 8.2 m/s)
Visibility: 6 or more miles (10+ km)
Ceiling: at least 12,000 feet AGL
Clouds: scattered clouds at 3500 feet AGL
Weather: no significant weather observed at this time

METAR text: LTFJ 191320Z 04017KT 9999 SCT035 25/14 Q1016 NOSIG RMK RWY24 04014KT 010V070
Conditions at: LTFJ (SABIHA GOKCEN , TR) observed 1320 UTC 19 August 2019
Temperature: 25.0°C (77°F)
Dewpoint: 14.0°C (57°F) [RH = 50%]
Pressure (altimeter): 30.00 inches Hg (1016.0 mb)
Winds: from the NE (40 degrees) at 20 MPH (17 knots; 8.7 m/s)
Visibility: 6 or more miles (10+ km)
Ceiling: at least 12,000 feet AGL
Clouds: scattered clouds at 3500 feet AGL
Weather: no significant weather observed at this time

METAR text: LTFJ 191250Z 04018KT 010V070 9999 SCT035 26/15 Q1016 NOSIG RMK RWY24 03014KT 360V060
Conditions at: LTFJ (SABIHA GOKCEN , TR) observed 1250 UTC 19 August 2019
Temperature: 26.0°C (79°F)
Dewpoint: 15.0°C (59°F) [RH = 51%]
Pressure (altimeter): 30.00 inches Hg (1016.0 mb)
Winds: from the NE (40 degrees) at 21 MPH (18 knots; 9.3 m/s)
Visibility: 6 or more miles (10+ km)
Ceiling: at least 12,000 feet AGL
Clouds: scattered clouds at 3500 feet AGL
Weather: no significant weather observed at this time

METAR text: LTFJ 191220Z 03015KT 9999 SCT035 26/15 Q1016 NOSIG RMK RWY24 04014KT 360V060
Conditions at: LTFJ (SABIHA GOKCEN , TR) observed 1220 UTC 19 August 2019
Temperature: 26.0°C (79°F)
Dewpoint: 15.0°C (59°F) [RH = 51%]
Pressure (altimeter): 30.00 inches Hg (1016.0 mb)
Winds: from the NNE (30 degrees) at 17 MPH (15 knots; 7.7 m/s)
Visibility: 6 or more miles (10+ km)
Ceiling: at least 12,000 feet AGL
Clouds: scattered clouds at 3500 feet AGL
Weather: no significant weather observed at this time

METAR text: LTFJ 191150Z 05014KT 010V080 9999 SCT035 26/14 Q1016 NOSIG RMK RWY24 04013KT
Conditions at: LTFJ (SABIHA GOKCEN , TR) observed 1150 UTC 19 August 2019
Temperature: 26.0°C (79°F)
Dewpoint: 14.0°C (57°F) [RH = 48%]
Pressure (altimeter): 30.00 inches Hg (1016.0 mb)
Winds: from the NE (50 degrees) at 16 MPH (14 knots; 7.2 m/s)
Visibility: 6 or more miles (10+ km)
Ceiling: at least 12,000 feet AGL
Clouds: scattered clouds at 3500 feet AGL
Weather: no significant weather observed at this time

METAR text: LTFJ 191120Z 05012KT 010V090 9999 SCT040 27/14 Q1016 NOSIG RMK RWY24 05011KT 350V080
Conditions at: LTFJ (SABIHA GOKCEN , TR) observed 1120 UTC 19 August 2019
Temperature: 27.0°C (81°F)
Dewpoint: 14.0°C (57°F) [RH = 45%]
Pressure (altimeter): 30.00 inches Hg (1016.0 mb)
Winds: from the NE (50 degrees) at 14 MPH (12 knots; 6.2 m/s)
Visibility: 6 or more miles (10+ km)
Ceiling: at least 12,000 feet AGL
Clouds: scattered clouds at 4000 feet AGL
Weather: no significant weather observed at this time

METAR text: LTFJ 191050Z 05013KT 9999 SCT035 27/14 Q1017 NOSIG RMK RWY24 03011KT 360V060
Conditions at: LTFJ (SABIHA GOKCEN , TR) observed 1050 UTC 19 August 2019
Temperature: 27.0°C (81°F)
Dewpoint: 14.0°C (57°F) [RH = 45%]
Pressure (altimeter): 30.03 inches Hg (1017.0 mb)
Winds: from the NE (50 degrees) at 15 MPH (13 knots; 6.7 m/s)
Visibility: 6 or more miles (10+ km)
Ceiling: at least 12,000 feet AGL
Clouds: scattered clouds at 3500 feet AGL
Weather: no significant weather observed at this time

METAR text: LTFJ 191020Z 05013KT 9999 SCT035 27/15 Q1017 NOSIG RMK RWY24 04009KT 350V070
Conditions at: LTFJ (SABIHA GOKCEN , TR) observed 1020 UTC 19 August 2019
Temperature: 27.0°C (81°F)
Dewpoint: 15.0°C (59°F) [RH = 48%]
Pressure (altimeter): 30.03 inches Hg (1017.0 mb)
Winds: from the NE (50 degrees) at 15 MPH (13 knots; 6.7 m/s)
Visibility: 6 or more miles (10+ km)
Ceiling: at least 12,000 feet AGL
Clouds: scattered clouds at 3500 feet AGL
Weather: no significant weather observed at this time

METAR text: LTFJ 190950Z 05011KT 9999 BKN030 26/15 Q1017 NOSIG RMK RWY24 02008KT 340V060
Conditions at: LTFJ (SABIHA GOKCEN , TR) observed 0950 UTC 19 August 2019
Temperature: 26.0°C (79°F)
Dewpoint: 15.0°C (59°F) [RH = 51%]
Pressure (altimeter): 30.03 inches Hg (1017.0 mb)
Winds: from the NE (50 degrees) at 13 MPH (11 knots; 5.7 m/s)
Visibility: 6 or more miles (10+ km)
Ceiling: 3000 feet AGL
Clouds: broken clouds at 3000 feet AGL
Weather: no significant weather observed at this time

METAR text: LTFJ 190920Z 03012KT 360V070 9999 FEW023TCU BKN030 25/15 Q1017 NOSIG RMK RWY24 01009KT 340V060
Conditions at: LTFJ (SABIHA GOKCEN , TR) observed 0920 UTC 19 August 2019
Temperature: 25.0°C (77°F)
Dewpoint: 15.0°C (59°F) [RH = 54%]
Pressure (altimeter): 30.03 inches Hg (1017.0 mb)
Winds: from the NNE (30 degrees) at 14 MPH (12 knots; 6.2 m/s)
Visibility: 6 or more miles (10+ km)
Ceiling: 3000 feet AGL
Clouds: few clouds at 2300 feet AGL
broken clouds at 3000 feet AGL
Weather: no significant weather observed at this time

METAR text: LTFJ 190850Z 04012KT 010V070 9999 FEW020TCU BKN030 26/15 Q1017 NOSIG RMK RWY24 02010KT 360V060
Conditions at: LTFJ (SABIHA GOKCEN , TR) observed 0850 UTC 19 August 2019
Temperature: 26.0°C (79°F)
Dewpoint: 15.0°C (59°F) [RH = 51%]
Pressure (altimeter): 30.03 inches Hg (1017.0 mb)
Winds: from the NE (40 degrees) at 14 MPH (12 knots; 6.2 m/s)
Visibility: 6 or more miles (10+ km)
Ceiling: 3000 feet AGL
Clouds: few clouds at 2000 feet AGL
broken clouds at 3000 feet AGL
Weather: no significant weather observed at this time

METAR text: LTFJ 190820Z 05013KT 020V080 9999 FEW020TCU BKN030 24/15 Q1017 NOSIG RMK RWY24 05009KT
Conditions at: LTFJ (SABIHA GOKCEN , TR) observed 0820 UTC 19 August 2019
Temperature: 24.0°C (75°F)
Dewpoint: 15.0°C (59°F) [RH = 57%]
Pressure (altimeter): 30.03 inches Hg (1017.0 mb)
Winds: from the NE (50 degrees) at 15 MPH (13 knots; 6.7 m/s)
Visibility: 6 or more miles (10+ km)
Ceiling: 3000 feet AGL
Clouds: few clouds at 2000 feet AGL
broken clouds at 3000 feet AGL
Weather: no significant weather observed at this time

METAR text: LTFJ 190750Z 03010KT 360V060 9999 SCT025TCU BKN035 24/16 Q1017 NOSIG RMK RWY24 04010KT 010V070
Conditions at: LTFJ (SABIHA GOKCEN , TR) observed 0750 UTC 19 August 2019
Temperature: 24.0°C (75°F)
Dewpoint: 16.0°C (61°F) [RH = 61%]
Pressure (altimeter): 30.03 inches Hg (1017.0 mb)
Winds: from the NNE (30 degrees) at 12 MPH (10 knots; 5.1 m/s)
Visibility: 6 or more miles (10+ km)
Ceiling: 3500 feet AGL
Clouds: scattered clouds at 2500 feet AGL
broken clouds at 3500 feet AGL
Weather: no significant weather observed at this time

METAR text: LTFJ 190720Z 05010KT 9999 FEW025TCU BKN035 25/15 Q1017 NOSIG RMK RWY24 04008KT 010V070
Conditions at: LTFJ (SABIHA GOKCEN , TR) observed 0720 UTC 19 August 2019
Temperature: 25.0°C (77°F)
Dewpoint: 15.0°C (59°F) [RH = 54%]
Pressure (altimeter): 30.03 inches Hg (1017.0 mb)
Winds: from the NE (50 degrees) at 12 MPH (10 knots; 5.1 m/s)
Visibility: 6 or more miles (10+ km)
Ceiling: 3500 feet AGL
Clouds: few clouds at 2500 feet AGL
broken clouds at 3500 feet AGL
Weather: no significant weather observed at this time

METAR text: LTFJ 190650Z 08006KT 040V120 9999 SCT035 24/16 Q1017 NOSIG RMK RWY24 05007KT 010V090
Conditions at: LTFJ (SABIHA GOKCEN , TR) observed 0650 UTC 19 August 2019
Temperature: 24.0°C (75°F)
Dewpoint: 16.0°C (61°F) [RH = 61%]
Pressure (altimeter): 30.03 inches Hg (1017.0 mb)
Winds: from the E (80 degrees) at 7 MPH (6 knots; 3.1 m/s)
Visibility: 6 or more miles (10+ km)
Ceiling: at least 12,000 feet AGL
Clouds: scattered clouds at 3500 feet AGL
Weather: no significant weather observed at this time

METAR text: LTFJ 190620Z VRB02KT 9999 FEW035 22/16 Q1017 NOSIG RMK RWY24 VRB02KT
Conditions at: LTFJ (SABIHA GOKCEN , TR) observed 0620 UTC 19 August 2019
Temperature: 22.0°C (72°F)
Dewpoint: 16.0°C (61°F) [RH = 69%]
Pressure (altimeter): 30.03 inches Hg (1017.0 mb)
Winds: variable direction winds at 2 MPH (2 knots; 1.0 m/s)
Visibility: 6 or more miles (10+ km)
Ceiling: at least 12,000 feet AGL
Clouds: few clouds at 3500 feet AGL
Weather: no significant weather observed at this time

METAR text: LTFJ 190550Z 00000KT 9999 FEW035 21/16 Q1017 NOSIG RMK RWY24 VRB01KT
Conditions at: LTFJ (SABIHA GOKCEN , TR) observed 0550 UTC 19 August 2019
Temperature: 21.0°C (70°F)
Dewpoint: 16.0°C (61°F) [RH = 73%]
Pressure (altimeter): 30.03 inches Hg (1017.0 mb)
Winds: calm
Visibility: 6 or more miles (10+ km)
Ceiling: at least 12,000 feet AGL
Clouds: few clouds at 3500 feet AGL
Weather: no significant weather observed at this time

METAR text: LTFJ 190520Z VRB01KT 9999 FEW035 21/16 Q1017 NOSIG RMK RWY24 VRB01KT
Conditions at: LTFJ (SABIHA GOKCEN , TR) observed 0520 UTC 19 August 2019
Temperature: 21.0°C (70°F)
Dewpoint: 16.0°C (61°F) [RH = 73%]
Pressure (altimeter): 30.03 inches Hg (1017.0 mb)
Winds: variable direction winds at 1 MPH (1 knots; 0.5 m/s)
Visibility: 6 or more miles (10+ km)
Ceiling: at least 12,000 feet AGL
Clouds: few clouds at 3500 feet AGL
Weather: no significant weather observed at this time

METAR text: LTFJ 190450Z 17003KT 130V200 9999 FEW030 19/16 Q1017 NOSIG RMK RWY24 VRB02KT
Conditions at: LTFJ (SABIHA GOKCEN , TR) observed 0450 UTC 19 August 2019
Temperature: 19.0°C (66°F)
Dewpoint: 16.0°C (61°F) [RH = 83%]
Pressure (altimeter): 30.03 inches Hg (1017.0 mb)
Winds: from the S (170 degrees) at 3 MPH (3 knots; 1.5 m/s)
Visibility: 6 or more miles (10+ km)
Ceiling: at least 12,000 feet AGL
Clouds: few clouds at 3000 feet AGL
Weather: no significant weather observed at this time

METAR text: LTFJ 190420Z 02005KT 350V050 9999 FEW025 18/16 Q1017 NOSIG RMK RWY24 34006KT
Conditions at: LTFJ (SABIHA GOKCEN , TR) observed 0420 UTC 19 August 2019
Temperature: 18.0°C (64°F)
Dewpoint: 16.0°C (61°F) [RH = 88%]
Pressure (altimeter): 30.03 inches Hg (1017.0 mb)
Winds: from the NNE (20 degrees) at 6 MPH (5 knots; 2.6 m/s)
Visibility: 6 or more miles (10+ km)
Ceiling: at least 12,000 feet AGL
Clouds: few clouds at 2500 feet AGL
Weather: no significant weather observed at this time

METAR text: LTFJ 190350Z 07004KT 9999 FEW020 16/16 Q1017 NOSIG RMK RWY24 04004KT
Conditions at: LTFJ (SABIHA GOKCEN , TR) observed 0350 UTC 19 August 2019
Temperature: 16.0°C (61°F)
Dewpoint: 16.0°C (61°F) [RH = 100%]
Pressure (altimeter): 30.03 inches Hg (1017.0 mb)
Winds: from the ENE (70 degrees) at 5 MPH (4 knots; 2.1 m/s)
Visibility: 6 or more miles (10+ km)
Ceiling: at least 12,000 feet AGL
Clouds: few clouds at 2000 feet AGL
Weather: no significant weather observed at this time

METAR text: LTFJ 190320Z 07004KT CAVOK 16/15 Q1017 NOSIG RMK RWY24 VRB02KT
Conditions at: LTFJ (SABIHA GOKCEN , TR) observed 0320 UTC 19 August 2019
Temperature: 16.0°C (61°F)
Dewpoint: 15.0°C (59°F) [RH = 94%]
Pressure (altimeter): 30.03 inches Hg (1017.0 mb)
Winds: from the ENE (70 degrees) at 5 MPH (4 knots; 2.1 m/s)
Visibility: 6 or more miles (10+ km)
Ceiling: ceiling and visibility are OK
Clouds: unknown
Weather: no significant weather observed at this time

METAR text: LTFJ 190250Z 07003KT CAVOK 16/15 Q1017 NOSIG RMK RWY24 36002KT
Conditions at: LTFJ (SABIHA GOKCEN , TR) observed 0250 UTC 19 August 2019
Temperature: 16.0°C (61°F)
Dewpoint: 15.0°C (59°F) [RH = 94%]
Pressure (altimeter): 30.03 inches Hg (1017.0 mb)
Winds: from the ENE (70 degrees) at 3 MPH (3 knots; 1.5 m/s)
Visibility: 6 or more miles (10+ km)
Ceiling: ceiling and visibility are OK
Clouds: unknown
Weather: no significant weather observed at this time

METAR text: LTFJ 190220Z 06006KT CAVOK 16/15 Q1016 NOSIG RMK RWY24 05006KT
Conditions at: LTFJ (SABIHA GOKCEN , TR) observed 0220 UTC 19 August 2019
Temperature: 16.0°C (61°F)
Dewpoint: 15.0°C (59°F) [RH = 94%]
Pressure (altimeter): 30.00 inches Hg (1016.0 mb)
Winds: from the ENE (60 degrees) at 7 MPH (6 knots; 3.1 m/s)
Visibility: 6 or more miles (10+ km)
Ceiling: ceiling and visibility are OK
Clouds: unknown
Weather: no significant weather observed at this time

METAR text: LTFJ 190150Z 07004KT CAVOK 16/15 Q1016 NOSIG RMK RWY24 06003KT 040V110
Conditions at: LTFJ (SABIHA GOKCEN , TR) observed 0150 UTC 19 August 2019
Temperature: 16.0°C (61°F)
Dewpoint: 15.0°C (59°F) [RH = 94%]
Pressure (altimeter): 30.00 inches Hg (1016.0 mb)
Winds: from the ENE (70 degrees) at 5 MPH (4 knots; 2.1 m/s)
Visibility: 6 or more miles (10+ km)
Ceiling: ceiling and visibility are OK
Clouds: unknown
Weather: no significant weather observed at this time

METAR text: LTFJ 190120Z 04005KT CAVOK 16/15 Q1016 NOSIG RMK RWY24 VRB02KT
Conditions at: LTFJ (SABIHA GOKCEN , TR) observed 0120 UTC 19 August 2019
Temperature: 16.0°C (61°F)
Dewpoint: 15.0°C (59°F) [RH = 94%]
Pressure (altimeter): 30.00 inches Hg (1016.0 mb)
Winds: from the NE (40 degrees) at 6 MPH (5 knots; 2.6 m/s)
Visibility: 6 or more miles (10+ km)
Ceiling: ceiling and visibility are OK
Clouds: unknown
Weather: no significant weather observed at this time

METAR text: LTFJ 190050Z 04006KT CAVOK 17/16 Q1016 NOSIG RMK RWY24 01002KT
Conditions at: LTFJ (SABIHA GOKCEN , TR) observed 0050 UTC 19 August 2019
Temperature: 17.0°C (63°F)
Dewpoint: 16.0°C (61°F) [RH = 94%]
Pressure (altimeter): 30.00 inches Hg (1016.0 mb)
Winds: from the NE (40 degrees) at 7 MPH (6 knots; 3.1 m/s)
Visibility: 6 or more miles (10+ km)
Ceiling: ceiling and visibility are OK
Clouds: unknown
Weather: no significant weather observed at this time

METAR text: LTFJ 190020Z 05005KT CAVOK 17/15 Q1016 NOSIG RMK RWY24 36003KT 330V050
Conditions at: LTFJ (SABIHA GOKCEN , TR) observed 0020 UTC 19 August 2019
Temperature: 17.0°C (63°F)
Dewpoint: 15.0°C (59°F) [RH = 88%]
Pressure (altimeter): 30.00 inches Hg (1016.0 mb)
Winds: from the NE (50 degrees) at 6 MPH (5 knots; 2.6 m/s)
Visibility: 6 or more miles (10+ km)
Ceiling: ceiling and visibility are OK
Clouds: unknown
Weather: no significant weather observed at this time

METAR text: LTFJ 182350Z 05005KT CAVOK 17/16 Q1016 NOSIG RMK RWY24 04003KT 340V050
Conditions at: LTFJ (SABIHA GOKCEN , TR) observed 2350 UTC 18 August 2019
Temperature: 17.0°C (63°F)
Dewpoint: 16.0°C (61°F) [RH = 94%]
Pressure (altimeter): 30.00 inches Hg (1016.0 mb)
Winds: from the NE (50 degrees) at 6 MPH (5 knots; 2.6 m/s)
Visibility: 6 or more miles (10+ km)
Ceiling: ceiling and visibility are OK
Clouds: unknown
Weather: no significant weather observed at this time

METAR text: LTFJ 182320Z 03004KT CAVOK 18/16 Q1016 NOSIG RMK RWY24 01003KT
Conditions at: LTFJ (SABIHA GOKCEN , TR) observed 2320 UTC 18 August 2019
Temperature: 18.0°C (64°F)
Dewpoint: 16.0°C (61°F) [RH = 88%]
Pressure (altimeter): 30.00 inches Hg (1016.0 mb)
Winds: from the NNE (30 degrees) at 5 MPH (4 knots; 2.1 m/s)
Visibility: 6 or more miles (10+ km)
Ceiling: ceiling and visibility are OK
Clouds: unknown
Weather: no significant weather observed at this time

METAR text: LTFJ 182250Z 02004KT 350V070 CAVOK 18/16 Q1016 NOSIG RMK RWY24 34005KT
Conditions at: LTFJ (SABIHA GOKCEN , TR) observed 2250 UTC 18 August 2019
Temperature: 18.0°C (64°F)
Dewpoint: 16.0°C (61°F) [RH = 88%]
Pressure (altimeter): 30.00 inches Hg (1016.0 mb)
Winds: from the NNE (20 degrees) at 5 MPH (4 knots; 2.1 m/s)
Visibility: 6 or more miles (10+ km)
Ceiling: ceiling and visibility are OK
Clouds: unknown
Weather: no significant weather observed at this time

METAR text: LTFJ 182220Z 05005KT CAVOK 18/16 Q1016 NOSIG RMK RWY24 VRB01KT
Conditions at: LTFJ (SABIHA GOKCEN , TR) observed 2220 UTC 18 August 2019
Temperature: 18.0°C (64°F)
Dewpoint: 16.0°C (61°F) [RH = 88%]
Pressure (altimeter): 30.00 inches Hg (1016.0 mb)
Winds: from the NE (50 degrees) at 6 MPH (5 knots; 2.6 m/s)
Visibility: 6 or more miles (10+ km)
Ceiling: ceiling and visibility are OK
Clouds: unknown
Weather: no significant weather observed at this time

METAR text: LTFJ 182150Z 05005KT 020V080 CAVOK 18/16 Q1016 NOSIG RMK RWY24 VRB02KT
Conditions at: LTFJ (SABIHA GOKCEN , TR) observed 2150 UTC 18 August 2019
Temperature: 18.0°C (64°F)
Dewpoint: 16.0°C (61°F) [RH = 88%]
Pressure (altimeter): 30.00 inches Hg (1016.0 mb)
Winds: from the NE (50 degrees) at 6 MPH (5 knots; 2.6 m/s)
Visibility: 6 or more miles (10+ km)
Ceiling: ceiling and visibility are OK
Clouds: unknown
Weather: no significant weather observed at this time

METAR text: LTFJ 182120Z 03007KT CAVOK 19/15 Q1016 NOSIG RMK RWY24 02004KT
Conditions at: LTFJ (SABIHA GOKCEN , TR) observed 2120 UTC 18 August 2019
Temperature: 19.0°C (66°F)
Dewpoint: 15.0°C (59°F) [RH = 78%]
Pressure (altimeter): 30.00 inches Hg (1016.0 mb)
Winds: from the NNE (30 degrees) at 8 MPH (7 knots; 3.6 m/s)
Visibility: 6 or more miles (10+ km)
Ceiling: ceiling and visibility are OK
Clouds: unknown
Weather: no significant weather observed at this time

METAR text: LTFJ 182050Z 03007KT CAVOK 20/15 Q1016 NOSIG RMK RWY24 02004KT 360V060
Conditions at: LTFJ (SABIHA GOKCEN , TR) observed 2050 UTC 18 August 2019
Temperature: 20.0°C (68°F)
Dewpoint: 15.0°C (59°F) [RH = 73%]
Pressure (altimeter): 30.00 inches Hg (1016.0 mb)
Winds: from the NNE (30 degrees) at 8 MPH (7 knots; 3.6 m/s)
Visibility: 6 or more miles (10+ km)
Ceiling: ceiling and visibility are OK
Clouds: unknown
Weather: no significant weather observed at this time

METAR text: LTFJ 182020Z 04006KT CAVOK 20/15 Q1016 NOSIG RMK RWY24 03003KT
Conditions at: LTFJ (SABIHA GOKCEN , TR) observed 2020 UTC 18 August 2019
Temperature: 20.0°C (68°F)
Dewpoint: 15.0°C (59°F) [RH = 73%]
Pressure (altimeter): 30.00 inches Hg (1016.0 mb)
Winds: from the NE (40 degrees) at 7 MPH (6 knots; 3.1 m/s)
Visibility: 6 or more miles (10+ km)
Ceiling: ceiling and visibility are OK
Clouds: unknown
Weather: no significant weather observed at this time

METAR text: LTFJ 181950Z 02005KT CAVOK 20/15 Q1016 NOSIG RMK RWY24 01002KT
Conditions at: LTFJ (SABIHA GOKCEN , TR) observed 1950 UTC 18 August 2019
Temperature: 20.0°C (68°F)
Dewpoint: 15.0°C (59°F) [RH = 73%]
Pressure (altimeter): 30.00 inches Hg (1016.0 mb)
Winds: from the NNE (20 degrees) at 6 MPH (5 knots; 2.6 m/s)
Visibility: 6 or more miles (10+ km)
Ceiling: ceiling and visibility are OK
Clouds: unknown
Weather: no significant weather observed at this time

METAR text: LTFJ 181920Z 02006KT 350V050 CAVOK 21/15 Q1017 NOSIG RMK RWY24 02005KT
Conditions at: LTFJ (SABIHA GOKCEN , TR) observed 1920 UTC 18 August 2019
Temperature: 21.0°C (70°F)
Dewpoint: 15.0°C (59°F) [RH = 69%]
Pressure (altimeter): 30.03 inches Hg (1017.0 mb)
Winds: from the NNE (20 degrees) at 7 MPH (6 knots; 3.1 m/s)
Visibility: 6 or more miles (10+ km)
Ceiling: ceiling and visibility are OK
Clouds: unknown
Weather: no significant weather observed at this time

METAR text: LTFJ 181850Z 04006KT 020V080 9999 FEW035 21/15 Q1017 NOSIG RMK RWY24 04004KT
Conditions at: LTFJ (SABIHA GOKCEN , TR) observed 1850 UTC 18 August 2019
Temperature: 21.0°C (70°F)
Dewpoint: 15.0°C (59°F) [RH = 69%]
Pressure (altimeter): 30.03 inches Hg (1017.0 mb)
Winds: from the NE (40 degrees) at 7 MPH (6 knots; 3.1 m/s)
Visibility: 6 or more miles (10+ km)
Ceiling: at least 12,000 feet AGL
Clouds: few clouds at 3500 feet AGL
Weather: no significant weather observed at this time

METAR text: LTFJ 181820Z 04007KT 010V070 9999 FEW035 21/15 Q1016 NOSIG RMK RWY24 03005KT
Conditions at: LTFJ (SABIHA GOKCEN , TR) observed 1820 UTC 18 August 2019
Temperature: 21.0°C (70°F)
Dewpoint: 15.0°C (59°F) [RH = 69%]
Pressure (altimeter): 30.00 inches Hg (1016.0 mb)
Winds: from the NE (40 degrees) at 8 MPH (7 knots; 3.6 m/s)
Visibility: 6 or more miles (10+ km)
Ceiling: at least 12,000 feet AGL
Clouds: few clouds at 3500 feet AGL
Weather: no significant weather observed at this time

METAR text: LTFJ 181750Z 03009KT 9999 SCT035 22/14 Q1016 NOSIG RMK RWY24 03005KT
Conditions at: LTFJ (SABIHA GOKCEN , TR) observed 1750 UTC 18 August 2019
Temperature: 22.0°C (72°F)
Dewpoint: 14.0°C (57°F) [RH = 60%]
Pressure (altimeter): 30.00 inches Hg (1016.0 mb)
Winds: from the NNE (30 degrees) at 10 MPH (9 knots; 4.6 m/s)
Visibility: 6 or more miles (10+ km)
Ceiling: at least 12,000 feet AGL
Clouds: scattered clouds at 3500 feet AGL
Weather: no significant weather observed at this time

METAR text: LTFJ 181720Z 04009KT 9999 SCT035 22/14 Q1016 NOSIG RMK RWY24 03006KT
Conditions at: LTFJ (SABIHA GOKCEN , TR) observed 1720 UTC 18 August 2019
Temperature: 22.0°C (72°F)
Dewpoint: 14.0°C (57°F) [RH = 60%]
Pressure (altimeter): 30.00 inches Hg (1016.0 mb)
Winds: from the NE (40 degrees) at 10 MPH (9 knots; 4.6 m/s)
Visibility: 6 or more miles (10+ km)
Ceiling: at least 12,000 feet AGL
Clouds: scattered clouds at 3500 feet AGL
Weather: no significant weather observed at this time

METAR text: LTFJ 181650Z 03010KT 9999 SCT035 23/14 Q1016 NOSIG RMK RWY24 01007KT
Conditions at: LTFJ (SABIHA GOKCEN , TR) observed 1650 UTC 18 August 2019
Temperature: 23.0°C (73°F)
Dewpoint: 14.0°C (57°F) [RH = 57%]
Pressure (altimeter): 30.00 inches Hg (1016.0 mb)
Winds: from the NNE (30 degrees) at 12 MPH (10 knots; 5.1 m/s)
Visibility: 6 or more miles (10+ km)
Ceiling: at least 12,000 feet AGL
Clouds: scattered clouds at 3500 feet AGL
Weather: no significant weather observed at this time

METAR text: LTFJ 181620Z 04013KT 9999 SCT035 24/13 Q1016 NOSIG RMK RWY24 03010KT
Conditions at: LTFJ (SABIHA GOKCEN , TR) observed 1620 UTC 18 August 2019
Temperature: 24.0°C (75°F)
Dewpoint: 13.0°C (55°F) [RH = 50%]
Pressure (altimeter): 30.00 inches Hg (1016.0 mb)
Winds: from the NE (40 degrees) at 15 MPH (13 knots; 6.7 m/s)
Visibility: 6 or more miles (10+ km)
Ceiling: at least 12,000 feet AGL
Clouds: scattered clouds at 3500 feet AGL
Weather: no significant weather observed at this time

METAR text: LTFJ 181550Z 05015KT 9999 SCT035 24/14 Q1016 NOSIG RMK RWY24 04012KT
Conditions at: LTFJ (SABIHA GOKCEN , TR) observed 1550 UTC 18 August 2019
Temperature: 24.0°C (75°F)
Dewpoint: 14.0°C (57°F) [RH = 54%]
Pressure (altimeter): 30.00 inches Hg (1016.0 mb)
Winds: from the NE (50 degrees) at 17 MPH (15 knots; 7.7 m/s)
Visibility: 6 or more miles (10+ km)
Ceiling: at least 12,000 feet AGL
Clouds: scattered clouds at 3500 feet AGL
Weather: no significant weather observed at this time

METAR text: LTFJ 181520Z 03014KT 9999 SCT035 25/14 Q1016 NOSIG RMK RWY24 02013KT
Conditions at: LTFJ (SABIHA GOKCEN , TR) observed 1520 UTC 18 August 2019
Temperature: 25.0°C (77°F)
Dewpoint: 14.0°C (57°F) [RH = 50%]
Pressure (altimeter): 30.00 inches Hg (1016.0 mb)
Winds: from the NNE (30 degrees) at 16 MPH (14 knots; 7.2 m/s)
Visibility: 6 or more miles (10+ km)
Ceiling: at least 12,000 feet AGL
Clouds: scattered clouds at 3500 feet AGL
Weather: no significant weather observed at this time

METAR text: LTFJ 181450Z 03014KT 9999 SCT035 25/13 Q1016 NOSIG RMK RWY24 02010KT 350V050
Conditions at: LTFJ (SABIHA GOKCEN , TR) observed 1450 UTC 18 August 2019
Temperature: 25.0°C (77°F)
Dewpoint: 13.0°C (55°F) [RH = 47%]
Pressure (altimeter): 30.00 inches Hg (1016.0 mb)
Winds: from the NNE (30 degrees) at 16 MPH (14 knots; 7.2 m/s)
Visibility: 6 or more miles (10+ km)
Ceiling: at least 12,000 feet AGL
Clouds: scattered clouds at 3500 feet AGL
Weather: no significant weather observed at this time

METAR text: LTFJ 181420Z 03012KT 360V060 9999 SCT035 25/13 Q1016 NOSIG RMK RWY24 02012KT 340V060
Conditions at: LTFJ (SABIHA GOKCEN , TR) observed 1420 UTC 18 August 2019
Temperature: 25.0°C (77°F)
Dewpoint: 13.0°C (55°F) [RH = 47%]
Pressure (altimeter): 30.00 inches Hg (1016.0 mb)
Winds: from the NNE (30 degrees) at 14 MPH (12 knots; 6.2 m/s)
Visibility: 6 or more miles (10+ km)
Ceiling: at least 12,000 feet AGL
Clouds: scattered clouds at 3500 feet AGL
Weather: no significant weather observed at this time

METAR text: LTFJ 181350Z 05015KT 9999 SCT035 26/13 Q1015 NOSIG RMK RWY24 02011KT
Conditions at: LTFJ (SABIHA GOKCEN , TR) observed 1350 UTC 18 August 2019
Temperature: 26.0°C (79°F)
Dewpoint: 13.0°C (55°F) [RH = 45%]
Pressure (altimeter): 29.97 inches Hg (1015.0 mb)
Winds: from the NE (50 degrees) at 17 MPH (15 knots; 7.7 m/s)
Visibility: 6 or more miles (10+ km)
Ceiling: at least 12,000 feet AGL
Clouds: scattered clouds at 3500 feet AGL
Weather: no significant weather observed at this time

METAR text: LTFJ 181320Z 02013KT 350V050 9999 SCT035 26/14 Q1015 NOSIG RMK RWY24 02012KT 350V050
Conditions at: LTFJ (SABIHA GOKCEN , TR) observed 1320 UTC 18 August 2019
Temperature: 26.0°C (79°F)
Dewpoint: 14.0°C (57°F) [RH = 48%]
Pressure (altimeter): 29.97 inches Hg (1015.0 mb)
Winds: from the NNE (20 degrees) at 15 MPH (13 knots; 6.7 m/s)
Visibility: 6 or more miles (10+ km)
Ceiling: at least 12,000 feet AGL
Clouds: scattered clouds at 3500 feet AGL
Weather: no significant weather observed at this time

METAR text: LTFJ 181250Z 03013KT 350V060 9999 SCT035 26/13 Q1015 NOSIG RMK RWY24 03012KT 350V060
Conditions at: LTFJ (SABIHA GOKCEN , TR) observed 1250 UTC 18 August 2019
Temperature: 26.0°C (79°F)
Dewpoint: 13.0°C (55°F) [RH = 45%]
Pressure (altimeter): 29.97 inches Hg (1015.0 mb)
Winds: from the NNE (30 degrees) at 15 MPH (13 knots; 6.7 m/s)
Visibility: 6 or more miles (10+ km)
Ceiling: at least 12,000 feet AGL
Clouds: scattered clouds at 3500 feet AGL
Weather: no significant weather observed at this time

METAR text: LTFJ 181220Z 03012KT 350V070 9999 SCT040 SCT080 26/14 Q1015 NOSIG RMK RWY24 03014KT
Conditions at: LTFJ (SABIHA GOKCEN , TR) observed 1220 UTC 18 August 2019
Temperature: 26.0°C (79°F)
Dewpoint: 14.0°C (57°F) [RH = 48%]
Pressure (altimeter): 29.97 inches Hg (1015.0 mb)
Winds: from the NNE (30 degrees) at 14 MPH (12 knots; 6.2 m/s)
Visibility: 6 or more miles (10+ km)
Ceiling: at least 12,000 feet AGL
Clouds: scattered clouds at 4000 feet AGL
scattered clouds at 8000 feet AGL
Weather: no significant weather observed at this time

METAR text: LTFJ 181150Z 02015KT 350V050 9999 SCT040 BKN080 25/15 Q1015 NOSIG RMK RWY24 02014KT
Conditions at: LTFJ (SABIHA GOKCEN , TR) observed 1150 UTC 18 August 2019
Temperature: 25.0°C (77°F)
Dewpoint: 15.0°C (59°F) [RH = 54%]
Pressure (altimeter): 29.97 inches Hg (1015.0 mb)
Winds: from the NNE (20 degrees) at 17 MPH (15 knots; 7.7 m/s)
Visibility: 6 or more miles (10+ km)
Ceiling: 8000 feet AGL
Clouds: scattered clouds at 4000 feet AGL
broken clouds at 8000 feet AGL
Weather: no significant weather observed at this time

METAR text: LTFJ 181120Z 03011KT 360V070 9999 SCT040 SCT080 25/14 Q1016 NOSIG RMK RWY24 02009KT 350V060
Conditions at: LTFJ (SABIHA GOKCEN , TR) observed 1120 UTC 18 August 2019
Temperature: 25.0°C (77°F)
Dewpoint: 14.0°C (57°F) [RH = 50%]
Pressure (altimeter): 30.00 inches Hg (1016.0 mb)
Winds: from the NNE (30 degrees) at 13 MPH (11 knots; 5.7 m/s)
Visibility: 6 or more miles (10+ km)
Ceiling: at least 12,000 feet AGL
Clouds: scattered clouds at 4000 feet AGL
scattered clouds at 8000 feet AGL
Weather: no significant weather observed at this time

METAR text: LTFJ 181050Z VRB05KT 9999 BKN035 23/15 Q1016 NOSIG RMK RWY24 01011KT
Conditions at: LTFJ (SABIHA GOKCEN , TR) observed 1050 UTC 18 August 2019
Temperature: 23.0°C (73°F)
Dewpoint: 15.0°C (59°F) [RH = 61%]
Pressure (altimeter): 30.00 inches Hg (1016.0 mb)
Winds: variable direction winds at 6 MPH (5 knots; 2.6 m/s)
Visibility: 6 or more miles (10+ km)
Ceiling: 3500 feet AGL
Clouds: broken clouds at 3500 feet AGL
Weather: no significant weather observed at this time

METAR text: LTFJ 181020Z 20005KT 160V220 9999 BKN035 BKN100 22/18 Q1016 BECMG 03012KT
Conditions at: LTFJ (SABIHA GOKCEN , TR) observed 1020 UTC 18 August 2019
Temperature: 22.0°C (72°F)
Dewpoint: 18.0°C (64°F) [RH = 78%]
Pressure (altimeter): 30.00 inches Hg (1016.0 mb)
Winds: from the SSW (200 degrees) at 6 MPH (5 knots; 2.6 m/s)
Visibility: 6 or more miles (10+ km)
Ceiling: 3500 feet AGL
Clouds: broken clouds at 3500 feet AGL
broken clouds at 10000 feet AGL
Weather: no significant weather observed at this time

METAR text: LTFJ 180950Z 22006KT 160V290 9999 BKN030 BKN090 22/18 Q1015 BECMG 03012KT
Conditions at: LTFJ (SABIHA GOKCEN , TR) observed 0950 UTC 18 August 2019
Temperature: 22.0°C (72°F)
Dewpoint: 18.0°C (64°F) [RH = 78%]
Pressure (altimeter): 29.97 inches Hg (1015.0 mb)
Winds: from the SW (220 degrees) at 7 MPH (6 knots; 3.1 m/s)
Visibility: 6 or more miles (10+ km)
Ceiling: 3000 feet AGL
Clouds: broken clouds at 3000 feet AGL
broken clouds at 9000 feet AGL
Weather: no significant weather observed at this time

METAR text: LTFJ 180920Z 18005KT 140V220 9999 FEW020CB SCT035 23/19 Q1015 BECMG 02012KT
Conditions at: LTFJ (SABIHA GOKCEN , TR) observed 0920 UTC 18 August 2019
Temperature: 23.0°C (73°F)
Dewpoint: 19.0°C (66°F) [RH = 78%]
Pressure (altimeter): 29.97 inches Hg (1015.0 mb)
Winds: from the S (180 degrees) at 6 MPH (5 knots; 2.6 m/s)
Visibility: 6 or more miles (10+ km)
Ceiling: at least 12,000 feet AGL
Clouds: few clouds at 2000 feet AGL
scattered clouds at 3500 feet AGL
Weather: no significant weather observed at this time

METAR text: LTFJ 180850Z 20006KT 150V240 9999 FEW020CB BKN035 22/19 Q1016 RESHRA NOSIG RMK RWY24 18005KT 140V230
Conditions at: LTFJ (SABIHA GOKCEN , TR) observed 0850 UTC 18 August 2019
Temperature: 22.0°C (72°F)
Dewpoint: 19.0°C (66°F) [RH = 83%]
Pressure (altimeter): 30.00 inches Hg (1016.0 mb)
Winds: from the SSW (200 degrees) at 7 MPH (6 knots; 3.1 m/s)
Visibility: 6 or more miles (10+ km)
Ceiling: 3500 feet AGL
Clouds: few clouds at 2000 feet AGL
broken clouds at 3500 feet AGL
Weather: no significant weather observed at this time

METAR text: LTFJ 180820Z 23009KT 9999 -SHRA FEW017CB BKN030 20/18 Q1016 NOSIG RMK RWY24 23007KT
Conditions at: LTFJ (SABIHA GOKCEN , TR) observed 0820 UTC 18 August 2019
Temperature: 20.0°C (68°F)
Dewpoint: 18.0°C (64°F) [RH = 88%]
Pressure (altimeter): 30.00 inches Hg (1016.0 mb)
Winds: from the SW (230 degrees) at 10 MPH (9 knots; 4.6 m/s)
Visibility: 6 or more miles (10+ km)
Ceiling: 3000 feet AGL
Clouds: few clouds at 1700 feet AGL
broken clouds at 3000 feet AGL
Weather: -SHRA  (light rain showers)

METAR text: LTFJ 180750Z 24006KT 200V280 9999 FEW025CB SCT035 22/18 Q1015 NOSIG RMK RWY24 20007KT
Conditions at: LTFJ (SABIHA GOKCEN , TR) observed 0750 UTC 18 August 2019
Temperature: 22.0°C (72°F)
Dewpoint: 18.0°C (64°F) [RH = 78%]
Pressure (altimeter): 29.97 inches Hg (1015.0 mb)
Winds: from the WSW (240 degrees) at 7 MPH (6 knots; 3.1 m/s)
Visibility: 6 or more miles (10+ km)
Ceiling: at least 12,000 feet AGL
Clouds: few clouds at 2500 feet AGL
scattered clouds at 3500 feet AGL
Weather: no significant weather observed at this time

METAR text: LTFJ 180720Z 23005KT 200V270 9999 SCT035 SCT080 21/18 Q1015 NOSIG RMK RWY24 20006KT
Conditions at: LTFJ (SABIHA GOKCEN , TR) observed 0720 UTC 18 August 2019
Temperature: 21.0°C (70°F)
Dewpoint: 18.0°C (64°F) [RH = 83%]
Pressure (altimeter): 29.97 inches Hg (1015.0 mb)
Winds: from the SW (230 degrees) at 6 MPH (5 knots; 2.6 m/s)
Visibility: 6 or more miles (10+ km)
Ceiling: at least 12,000 feet AGL
Clouds: scattered clouds at 3500 feet AGL
scattered clouds at 8000 feet AGL
Weather: no significant weather observed at this time

METAR text: LTFJ 180650Z 22006KT 170V250 9999 SCT030 21/18 Q1015 NOSIG RMK RWY24 20006KT 170V230
Conditions at: LTFJ (SABIHA GOKCEN , TR) observed 0650 UTC 18 August 2019
Temperature: 21.0°C (70°F)
Dewpoint: 18.0°C (64°F) [RH = 83%]
Pressure (altimeter): 29.97 inches Hg (1015.0 mb)
Winds: from the SW (220 degrees) at 7 MPH (6 knots; 3.1 m/s)
Visibility: 6 or more miles (10+ km)
Ceiling: at least 12,000 feet AGL
Clouds: scattered clouds at 3000 feet AGL
Weather: no significant weather observed at this time

METAR text: LTFJ 180620Z 23005KT 210V270 7000 SCT030 20/18 Q1015 NOSIG RMK RWY24 20004KT 160V240
Conditions at: LTFJ (SABIHA GOKCEN , TR) observed 0620 UTC 18 August 2019
Temperature: 20.0°C (68°F)
Dewpoint: 18.0°C (64°F) [RH = 88%]
Pressure (altimeter): 29.97 inches Hg (1015.0 mb)
Winds: from the SW (230 degrees) at 6 MPH (5 knots; 2.6 m/s)
Visibility: 4 miles ( 7 km)
Ceiling: at least 12,000 feet AGL
Clouds: scattered clouds at 3000 feet AGL
Weather: no significant weather observed at this time

Forecast for: LTFJ (SABIHA GOKCEN , TR)
Text: TAF LTFJ 191640Z 1918/2018 03009KT CAVOK
Forecast period: 1800 to 2100 UTC 19 August 2019
Forecast type: FROM: standard forecast or significant change
Winds: from the NNE (30 degrees) at 10 MPH (9 knots; 4.6 m/s)
Visibility: 6 or more miles 10+ km)
Ceiling: unknown
Clouds: missing
Weather: NSW  (no significant weather)
Text: BECMG 1921/1924 SCT035
Forecast period: 2100 UTC 19 August 2019 to 1800 UTC 20 August 2019
Forecast type: BECOMING: Conditions expected to become as follows by 0000 UTC 20 August 2019
Winds: from the NNE (30 degrees) at 10 MPH (9 knots; 4.6 m/s)
Visibility: 6 or more miles 10+ km)
Ceiling: at least 12,000 feet AGL
Clouds: scattered clouds at 3500 feet AGL
Weather: NSW  (no significant weather)
Text: TEMPO 2003/2007 -SHRA FEW020CB BKN030
Forecast period: 0300 to 0700 UTC 20 August 2019
Forecast type: TEMPORARY: The following changes expected for less than half the time period
Visibility: missing
Ceiling: 3000 feet AGL
Clouds: few clouds at 2000 feet AGL
broken clouds at 3000 feet AGL
Weather: -SHRA  (light rain showers)
Text: TEMPO 2010/2014 -SHRA FEW020CB BKN030
Forecast period: 1000 to 1400 UTC 20 August 2019
Forecast type: TEMPORARY: The following changes expected for less than half the time period
Visibility: missing
Ceiling: 3000 feet AGL
Clouds: few clouds at 2000 feet AGL
broken clouds at 3000 feet AGL
Weather: -SHRA  (light rain showers)